createdAt,value
2018-08-20T00:02:25.686Z,18.63
2018-08-20T00:04:54.536Z,20.10
2018-08-20T00:07:23.003Z,19.30
2018-08-20T00:09:51.495Z,19.90
2018-08-20T00:12:20.081Z,19.00
2018-08-20T00:14:48.679Z,19.50
2018-08-20T00:17:17.965Z,19.57
2018-08-20T00:19:46.435Z,17.73
2018-08-20T00:27:15.786Z,20.50
2018-08-20T00:29:44.291Z,20.07
2018-08-20T00:32:13.365Z,18.40
2018-08-20T00:34:42.533Z,19.20
2018-08-20T00:37:11.066Z,18.40
2018-08-20T00:39:39.520Z,19.70
2018-08-20T00:42:08.045Z,18.57
2018-08-20T00:44:36.534Z,20.30
2018-08-20T00:47:05.025Z,18.80
2018-08-20T00:49:33.593Z,19.42
2018-08-20T00:52:02.303Z,18.77
2018-08-20T00:54:32.322Z,18.97
2018-08-20T00:57:01.066Z,20.13
2018-08-20T00:59:29.550Z,19.35
2018-08-20T01:01:58.040Z,19.83
2018-08-20T01:04:26.541Z,20.08
2018-08-20T01:06:55.002Z,20.60
2018-08-20T01:09:23.470Z,20.45
2018-08-20T01:11:53.017Z,20.27
2018-08-20T01:14:21.488Z,20.54
2018-08-20T01:16:49.979Z,18.57
2018-08-20T01:19:18.890Z,19.57
2018-08-20T01:21:47.381Z,19.05
2018-08-20T01:24:17.362Z,18.55
2018-08-20T01:26:45.886Z,19.07
2018-08-20T01:34:11.471Z,18.80
2018-08-20T01:36:39.982Z,19.60
2018-08-20T01:39:08.694Z,18.35
2018-08-20T01:41:37.506Z,18.40
2018-08-20T01:44:06.010Z,19.17
2018-08-20T01:46:37.520Z,18.12
2018-08-20T01:49:07.118Z,17.40
2018-08-20T01:51:35.757Z,18.73
2018-08-20T01:54:04.305Z,18.27
2018-08-20T01:56:33.369Z,18.48
2018-08-20T01:59:01.830Z,19.20
2018-08-20T02:01:30.308Z,19.00
2018-08-20T02:03:59.014Z,18.57
2018-08-20T02:06:27.539Z,19.17
2018-08-20T02:08:56.046Z,20.67
2018-08-20T02:11:24.662Z,18.60
2018-08-20T02:13:53.143Z,18.90
2018-08-20T02:16:21.629Z,18.18
2018-08-20T02:18:50.172Z,19.13
2018-08-20T02:21:18.669Z,20.87
2018-08-20T02:23:47.202Z,18.97
2018-08-20T02:26:19.035Z,22.10
2018-08-20T02:28:47.593Z,21.37
2018-08-20T02:31:17.405Z,21.87
2018-08-20T02:33:45.937Z,20.33
2018-08-20T02:41:15.233Z,22.37
2018-08-20T02:43:43.705Z,20.93
2018-08-20T02:46:12.199Z,19.40
2018-08-20T02:48:41.050Z,19.70
2018-08-20T02:51:09.539Z,18.50
2018-08-20T02:53:38.090Z,19.67
2018-08-20T02:56:06.596Z,18.53
2018-08-20T02:58:36.453Z,18.93
2018-08-20T03:01:05.418Z,19.63
2018-08-20T03:03:34.000Z,19.02
2018-08-20T03:06:03.035Z,20.60
2018-08-20T03:08:31.514Z,22.63
2018-08-20T03:11:00.489Z,20.30
2018-08-20T03:13:28.977Z,20.50
2018-08-20T03:15:57.460Z,18.32
2018-08-20T03:18:25.960Z,19.27
2018-08-20T03:20:54.458Z,21.30
2018-08-20T03:23:22.930Z,21.20
2018-08-20T03:25:51.438Z,22.20
2018-08-20T03:28:19.921Z,22.57
2018-08-20T03:30:49.007Z,19.90
2018-08-20T03:33:18.052Z,19.83
2018-08-20T03:35:47.620Z,19.77
2018-08-20T03:38:17.383Z,21.12
2018-08-20T03:40:45.874Z,21.83
2018-08-20T03:48:14.848Z,21.03
2018-08-20T03:50:43.316Z,21.63
2018-08-20T03:53:11.805Z,22.60
2018-08-20T03:55:40.726Z,21.03
2018-08-20T03:58:09.198Z,22.40
2018-08-20T04:00:39.019Z,23.23
2018-08-20T04:03:07.525Z,22.37
2018-08-20T04:05:36.019Z,23.70
2018-08-20T04:08:04.508Z,22.40
2018-08-20T04:10:33.017Z,21.70
2018-08-20T04:13:01.489Z,22.87
2018-08-20T04:15:29.954Z,21.87
2018-08-20T04:17:58.902Z,22.00
2018-08-20T04:20:27.370Z,21.90
2018-08-20T04:22:55.830Z,21.60
2018-08-20T04:25:24.329Z,22.47
2018-08-20T04:27:52.797Z,21.20
2018-08-20T04:30:21.280Z,21.27
2018-08-20T04:32:49.813Z,23.23
2018-08-20T04:35:18.298Z,21.93
2018-08-20T04:37:46.787Z,22.90
2018-08-20T04:45:11.358Z,22.13
2018-08-20T04:47:39.818Z,21.83
2018-08-20T04:50:09.828Z,22.40
2018-08-20T04:52:38.861Z,21.83
2018-08-20T04:55:07.378Z,22.57
2018-08-20T04:57:39.707Z,21.70
2018-08-20T05:00:10.005Z,22.27
2018-08-20T05:02:41.485Z,21.85
2018-08-20T05:05:10.068Z,21.83
2018-08-20T05:07:38.566Z,22.07
2018-08-20T05:10:07.592Z,21.23
2018-08-20T05:12:36.170Z,21.17
2018-08-20T05:15:05.069Z,21.47
2018-08-20T05:17:33.641Z,21.27
2018-08-20T05:20:02.149Z,21.97
2018-08-20T05:22:30.617Z,22.50
2018-08-20T05:24:59.354Z,22.07
2018-08-20T05:27:28.557Z,22.42
2018-08-20T05:29:57.055Z,21.83
2018-08-20T05:32:25.546Z,20.00
2018-08-20T05:34:54.105Z,20.63
2018-08-20T05:37:22.618Z,21.27
2018-08-20T05:39:51.174Z,20.47
2018-08-20T05:42:19.735Z,20.70
2018-08-20T05:44:48.334Z,20.70
2018-08-20T05:47:17.822Z,20.43
2018-08-20T05:49:46.387Z,19.27
2018-08-20T05:57:11.303Z,20.40
2018-08-20T05:59:40.324Z,19.73
2018-08-20T06:02:09.390Z,19.17
2018-08-20T06:04:39.030Z,18.70
2018-08-20T06:07:10.324Z,18.75
2018-08-20T06:09:38.802Z,18.50
2018-08-20T06:12:07.399Z,17.20
2018-08-20T06:14:35.906Z,17.37
2018-08-20T06:17:04.420Z,16.43
2018-08-20T06:19:32.985Z,17.23
2018-08-20T06:22:01.479Z,16.07
2018-08-20T06:24:29.934Z,16.20
2018-08-20T06:26:59.038Z,16.03
2018-08-20T06:29:27.531Z,15.03
2018-08-20T06:31:56.190Z,13.93
2018-08-20T06:34:24.722Z,13.47
2018-08-20T06:36:53.247Z,13.60
2018-08-20T06:39:21.728Z,12.80
2018-08-20T06:41:50.278Z,12.07
2018-08-20T06:44:18.827Z,11.53
2018-08-20T06:46:47.333Z,11.10
2018-08-20T06:54:17.150Z,9.40
2018-08-20T06:56:45.684Z,9.20
2018-08-20T07:04:11.571Z,9.30
2018-08-20T07:06:40.939Z,9.33
2018-08-20T07:09:10.429Z,8.75
2018-08-20T07:11:39.584Z,8.33
2018-08-20T07:14:08.110Z,8.00
2018-08-20T07:16:37.538Z,8.47
2018-08-20T07:19:06.863Z,7.07
2018-08-20T07:21:35.361Z,7.07
2018-08-20T07:24:04.024Z,6.57
2018-08-20T07:26:32.527Z,7.03
2018-08-20T07:29:01.073Z,6.77
2018-08-20T07:31:29.600Z,6.05
2018-08-20T07:33:58.221Z,5.80
2018-08-20T07:36:26.753Z,5.70
2018-08-20T07:38:55.337Z,6.20
2018-08-20T07:41:23.898Z,5.43
2018-08-20T07:43:52.443Z,5.62
2018-08-20T07:46:20.985Z,5.05
2018-08-20T07:48:49.535Z,5.10
2018-08-20T07:51:18.169Z,4.50
2018-08-20T07:53:46.678Z,5.20
2018-08-20T08:01:11.754Z,4.87
2018-08-20T08:03:40.619Z,4.83
2018-08-20T08:06:09.163Z,4.83
2018-08-20T08:08:39.083Z,4.60
2018-08-20T08:11:10.514Z,4.37
2018-08-20T08:13:39.014Z,5.37
2018-08-20T08:16:07.637Z,5.28
2018-08-20T08:18:36.159Z,3.87
2018-08-20T08:21:04.727Z,3.30
2018-08-20T08:23:33.823Z,3.58
2018-08-20T08:26:02.334Z,4.33
2018-08-20T08:28:30.884Z,4.40
2018-08-20T08:30:59.403Z,3.70
2018-08-20T08:33:27.898Z,3.02
2018-08-20T08:35:56.436Z,3.20
2018-08-20T08:38:24.981Z,3.20
2018-08-20T08:40:53.614Z,3.40
2018-08-20T08:43:22.120Z,3.20
2018-08-20T08:45:50.856Z,2.87
2018-08-20T08:48:19.351Z,2.97
2018-08-20T08:50:47.904Z,2.70
2018-08-20T08:53:17.622Z,3.20
2018-08-20T08:55:46.108Z,2.97
2018-08-20T09:03:18.723Z,3.87
2018-08-20T09:05:47.296Z,2.73
2018-08-20T09:08:17.425Z,2.95
2018-08-20T09:10:47.218Z,2.63
2018-08-20T09:13:16.533Z,3.03
2018-08-20T09:15:45.025Z,2.37
2018-08-20T09:18:14.486Z,2.70
2018-08-20T09:20:43.049Z,3.03
2018-08-20T09:23:11.530Z,3.10
2018-08-20T09:25:40.362Z,2.93
2018-08-20T09:28:08.914Z,3.50
2018-08-20T09:30:37.451Z,2.90
2018-08-20T09:33:05.998Z,3.03
2018-08-20T09:35:34.478Z,3.30
2018-08-20T09:38:03.956Z,2.60
2018-08-20T09:40:33.032Z,3.20
2018-08-20T09:43:04.192Z,2.57
2018-08-20T09:45:32.790Z,2.80
2018-08-20T09:48:01.366Z,2.87
2018-08-20T09:50:29.871Z,2.90
2018-08-20T09:52:58.485Z,3.10
2018-08-20T09:55:27.048Z,3.13
2018-08-20T09:57:56.277Z,2.60
2018-08-20T10:00:30.239Z,2.95
2018-08-20T10:02:59.698Z,2.40
2018-08-20T10:05:28.229Z,2.67
2018-08-20T10:07:57.429Z,2.70
2018-08-20T10:10:26.946Z,2.80
2018-08-20T10:12:57.737Z,2.77
2018-08-20T10:15:26.299Z,3.00
2018-08-20T10:17:54.800Z,3.20
2018-08-20T10:20:23.604Z,3.35
2018-08-20T10:22:52.821Z,4.03
2018-08-20T10:25:21.378Z,4.28
2018-08-20T10:27:50.240Z,3.57
2018-08-20T10:30:19.109Z,4.40
2018-08-20T10:32:47.670Z,4.60
2018-08-20T10:35:17.414Z,4.42
2018-08-20T10:37:45.987Z,4.13
2018-08-20T10:45:15.627Z,4.70
2018-08-20T10:47:45.663Z,4.23
2018-08-20T10:55:08.156Z,4.50
2018-08-20T10:57:36.653Z,4.87
2018-08-20T11:00:06.093Z,4.23
2018-08-20T11:02:34.637Z,4.42
2018-08-20T11:05:03.132Z,4.00
2018-08-20T11:07:35.394Z,5.22
2018-08-20T11:10:05.739Z,4.60
2018-08-20T11:12:34.243Z,5.08
2018-08-20T11:15:07.158Z,4.83
2018-08-20T11:17:36.186Z,4.10
2018-08-20T11:20:05.868Z,4.30
2018-08-20T11:22:34.434Z,4.58
2018-08-20T11:25:02.934Z,4.63
2018-08-20T11:27:31.428Z,4.60
2018-08-20T11:29:59.986Z,4.57
2018-08-20T11:32:28.493Z,5.40
2018-08-20T11:34:57.008Z,5.13
2018-08-20T11:37:25.550Z,4.55
2018-08-20T11:39:54.032Z,4.90
2018-08-20T11:42:22.717Z,5.10
2018-08-20T11:44:51.446Z,5.00
2018-08-20T11:47:19.918Z,5.20
2018-08-20T11:49:48.386Z,4.87
2018-08-20T11:52:17.494Z,5.28
2018-08-20T11:54:45.982Z,4.97
2018-08-20T12:02:11.756Z,4.87
2018-08-20T12:04:40.247Z,5.27
2018-08-20T12:07:09.013Z,4.47
2018-08-20T12:09:37.794Z,4.90
2018-08-20T12:12:06.495Z,4.20
2018-08-20T12:14:35.050Z,5.83
2018-08-20T12:17:04.276Z,5.10
2018-08-20T12:19:32.786Z,4.57
2018-08-20T12:22:01.514Z,4.53
2018-08-20T12:24:30.518Z,5.00
2018-08-20T12:26:59.137Z,4.60
2018-08-20T12:29:28.631Z,4.40
2018-08-20T12:31:57.205Z,4.73
2018-08-20T12:34:25.948Z,4.80
2018-08-20T12:36:54.454Z,4.60
2018-08-20T12:39:22.960Z,5.28
2018-08-20T12:41:51.674Z,5.40
2018-08-20T12:44:20.280Z,5.45
2018-08-20T12:46:48.874Z,4.97
2018-08-20T12:49:18.576Z,5.18
2018-08-20T12:51:48.062Z,5.90
2018-08-20T12:54:18.633Z,5.04
2018-08-20T12:56:47.102Z,5.40
2018-08-20T12:59:17.364Z,5.10
2018-08-20T13:01:49.055Z,5.00
2018-08-20T13:04:17.548Z,5.30
2018-08-20T13:06:46.027Z,5.43
2018-08-20T13:14:08.395Z,6.07
2018-08-20T13:16:38.575Z,5.63
2018-08-20T13:19:08.430Z,5.33
2018-08-20T13:21:36.912Z,5.80
2018-08-20T13:24:05.745Z,5.87
2018-08-20T13:26:34.395Z,5.22
2018-08-20T13:29:03.874Z,5.70
2018-08-20T13:31:32.361Z,5.70
2018-08-20T13:34:00.910Z,6.00
2018-08-20T13:36:29.770Z,5.90
2018-08-20T13:38:58.333Z,5.97
2018-08-20T13:41:26.840Z,6.28
2018-08-20T13:43:55.804Z,5.80
2018-08-20T13:46:25.245Z,7.25
2018-08-20T13:48:54.586Z,6.13
2018-08-20T13:51:23.117Z,5.70
2018-08-20T13:53:51.631Z,5.87
2018-08-20T13:56:20.133Z,5.77
2018-08-20T13:58:49.292Z,6.40
2018-08-20T14:01:17.810Z,5.80
2018-08-20T14:03:46.309Z,5.40
2018-08-20T14:11:15.157Z,6.43
2018-08-20T14:13:43.650Z,4.93
2018-08-20T14:16:12.200Z,5.63
2018-08-20T14:18:41.112Z,5.30
2018-08-20T14:21:13.793Z,5.63
2018-08-20T14:23:43.391Z,5.27
2018-08-20T14:26:13.992Z,5.70
2018-08-20T14:28:42.514Z,5.45
2018-08-20T14:31:11.066Z,5.53
2018-08-20T14:33:39.618Z,5.43
2018-08-20T14:36:08.649Z,5.50
2018-08-20T14:38:37.546Z,5.77
2018-08-20T14:41:06.424Z,5.67
2018-08-20T14:43:35.107Z,5.83
2018-08-20T14:46:09.080Z,6.23
2018-08-20T14:48:37.636Z,6.30
2018-08-20T14:51:06.230Z,5.47
2018-08-20T14:53:34.862Z,5.77
2018-08-20T14:56:03.344Z,6.10
2018-08-20T14:58:31.862Z,5.25
2018-08-20T15:01:00.847Z,6.23
2018-08-20T15:03:29.328Z,5.17
2018-08-20T15:05:57.852Z,5.63
2018-08-20T15:08:26.413Z,5.40
2018-08-20T15:10:55.128Z,5.57
2018-08-20T15:13:23.666Z,6.10
2018-08-20T15:15:52.361Z,4.87
2018-08-20T15:18:23.749Z,5.20
2018-08-20T15:20:52.356Z,6.00
2018-08-20T15:23:23.475Z,6.12
2018-08-20T15:25:52.189Z,5.87
2018-08-20T15:28:20.856Z,5.58
2018-08-20T15:30:49.540Z,5.37
2018-08-20T15:33:20.617Z,5.65
2018-08-20T15:35:49.299Z,5.60
2018-08-20T15:38:18.069Z,6.03
2018-08-20T15:40:46.630Z,5.97
2018-08-20T15:48:16.010Z,5.83
2018-08-20T15:50:44.534Z,5.50
2018-08-20T15:53:13.078Z,5.97
2018-08-20T15:55:41.726Z,5.43
2018-08-20T15:58:10.256Z,5.97
2018-08-20T16:00:38.781Z,5.23
2018-08-20T16:03:07.535Z,5.03
2018-08-20T16:05:36.086Z,5.77
2018-08-20T16:08:04.705Z,5.80
2018-08-20T16:10:33.682Z,6.13
2018-08-20T16:13:02.218Z,5.87
2018-08-20T16:15:30.774Z,5.07
2018-08-20T16:17:59.356Z,5.33
2018-08-20T16:20:27.852Z,5.33
2018-08-20T16:22:56.462Z,5.80
2018-08-20T16:25:28.417Z,5.50
2018-08-20T16:27:57.346Z,6.03
2018-08-20T16:30:26.524Z,5.87
2018-08-20T16:32:55.166Z,5.60
2018-08-20T16:35:24.091Z,5.80
2018-08-20T16:37:52.762Z,5.83
2018-08-20T16:40:21.453Z,6.25
2018-08-20T16:42:50.177Z,5.27
2018-08-20T16:45:19.686Z,5.60
2018-08-20T16:47:48.329Z,5.90
2018-08-20T16:50:17.767Z,5.77
2018-08-20T16:52:46.787Z,5.60
2018-08-20T17:00:13.748Z,5.40
2018-08-20T17:02:43.122Z,5.40
2018-08-20T17:05:13.030Z,6.10
2018-08-20T17:07:41.946Z,6.30
2018-08-20T17:10:11.974Z,6.55
2018-08-20T17:12:44.847Z,5.77
2018-08-20T17:15:17.141Z,5.90
2018-08-20T17:17:45.768Z,8.00
2018-08-20T17:25:08.002Z,6.03
2018-08-20T17:27:37.175Z,6.37
2018-08-20T17:30:07.799Z,6.20
2018-08-20T17:32:36.851Z,5.78
2018-08-20T17:35:07.816Z,6.33
2018-08-20T17:37:36.373Z,6.00
2018-08-20T17:40:08.276Z,5.70
2018-08-20T17:42:36.918Z,6.73
2018-08-20T17:45:06.525Z,6.00
2018-08-20T17:47:38.217Z,5.78
2018-08-20T17:50:11.511Z,7.37
2018-08-20T17:52:41.834Z,6.57
2018-08-20T17:55:11.831Z,6.63
2018-08-20T18:06:20.170Z,7.17
2018-08-20T18:08:48.783Z,6.93
2018-08-20T18:11:17.393Z,6.47
2018-08-20T18:13:47.413Z,7.50
2018-08-20T18:16:18.847Z,6.10
2018-08-20T18:18:48.634Z,7.10
2018-08-20T18:21:17.564Z,7.53
2018-08-20T18:23:46.433Z,6.80
2018-08-20T18:26:17.506Z,6.65
2018-08-20T18:28:53.517Z,6.67
2018-08-20T18:31:24.463Z,6.83
2018-08-20T18:33:53.082Z,7.30
2018-08-20T18:36:24.442Z,6.65
2018-08-20T18:38:58.526Z,6.80
2018-08-20T18:42:17.099Z,6.93
2018-08-20T18:44:47.938Z,7.13
2018-08-20T18:52:19.498Z,6.75
2018-08-20T18:54:52.654Z,9.23
2018-08-20T18:57:29.134Z,9.80
2018-08-20T18:59:58.936Z,9.03
2018-08-20T19:02:38.967Z,8.75
2018-08-20T19:05:12.042Z,8.63
2018-08-20T19:07:41.373Z,8.50
2018-08-20T19:10:16.521Z,8.30
2018-08-20T19:12:45.566Z,8.40
2018-08-20T19:15:41.340Z,7.83
2018-08-20T19:18:12.709Z,8.10
2018-08-20T19:20:42.274Z,9.17
2018-08-20T19:23:10.946Z,8.60
2018-08-20T19:25:40.012Z,8.83
2018-08-20T19:28:13.340Z,8.30
2018-08-20T19:30:42.020Z,8.80
2018-08-20T19:33:15.927Z,8.70
2018-08-20T19:35:44.737Z,8.60
2018-08-20T19:38:13.240Z,9.13
2018-08-20T19:40:42.029Z,8.90
2018-08-20T19:43:10.665Z,8.60
2018-08-20T19:45:43.282Z,8.87
2018-08-20T19:48:12.448Z,9.03
2018-08-20T19:50:41.129Z,8.87
2018-08-20T19:53:24.835Z,8.83
2018-08-20T19:55:53.811Z,9.13
2018-08-20T19:58:27.713Z,9.20
2018-08-20T20:01:07.534Z,10.20
2018-08-20T20:03:36.158Z,9.17
2018-08-20T20:06:04.753Z,10.67
2018-08-20T20:08:33.631Z,8.90
2018-08-20T20:11:02.213Z,9.40
2018-08-20T20:13:30.756Z,10.03
2018-08-20T20:16:01.409Z,9.70
2018-08-20T20:18:30.054Z,9.63
2018-08-20T20:20:58.618Z,10.20
2018-08-20T20:23:27.138Z,9.00
2018-08-20T20:25:56.018Z,10.30
2018-08-20T20:28:25.362Z,9.70
2018-08-20T20:30:54.411Z,10.10
2018-08-20T20:33:24.038Z,11.40
2018-08-20T20:35:52.597Z,10.25
2018-08-20T20:38:21.186Z,10.55
2018-08-20T20:40:49.745Z,10.40
2018-08-20T20:43:23.685Z,9.40
2018-08-20T20:45:52.424Z,13.73
2018-08-20T20:48:20.968Z,14.50
2018-08-20T20:50:49.518Z,12.15
2018-08-20T20:53:18.174Z,12.43
2018-08-20T20:55:46.754Z,11.97
2018-08-20T21:03:12.986Z,10.70
2018-08-20T21:05:42.032Z,10.30
2018-08-20T21:08:10.567Z,11.13
2018-08-20T21:10:45.724Z,10.33
2018-08-20T21:18:07.282Z,10.70
2018-08-20T21:20:35.882Z,10.50
2018-08-20T21:23:05.808Z,11.00
2018-08-20T21:25:34.844Z,10.13
2018-08-20T21:28:03.386Z,9.73
2018-08-20T21:30:37.176Z,10.07
2018-08-20T21:33:05.783Z,10.70
2018-08-20T21:35:35.115Z,10.53
2018-08-20T21:38:03.791Z,11.50
2018-08-20T21:40:32.366Z,10.80
2018-08-20T21:43:00.903Z,11.13
2018-08-20T21:45:29.486Z,10.90
2018-08-20T21:47:58.042Z,11.87
2018-08-20T21:50:26.581Z,11.93
2018-08-20T21:52:55.627Z,12.43
2018-08-20T21:55:27.661Z,12.70
2018-08-20T21:57:56.907Z,13.17
2018-08-20T22:00:26.409Z,14.75
2018-08-20T22:02:59.945Z,12.57
2018-08-20T22:05:28.697Z,12.68
2018-08-20T22:07:58.537Z,13.70
2018-08-20T22:10:29.134Z,14.00
2018-08-20T22:12:58.337Z,12.97
2018-08-20T22:15:26.881Z,14.00
2018-08-20T22:17:55.421Z,12.90
2018-08-20T22:20:24.045Z,13.50
2018-08-20T22:22:52.565Z,12.77
2018-08-20T22:25:21.106Z,15.60
2018-08-20T22:27:54.495Z,14.37
2018-08-20T22:30:25.663Z,14.77
2018-08-20T22:32:54.289Z,14.77
2018-08-20T22:35:25.581Z,13.17
2018-08-20T22:37:54.179Z,14.77
2018-08-20T22:40:23.069Z,14.30
2018-08-20T22:42:54.750Z,14.50
2018-08-20T22:45:23.293Z,14.63
2018-08-20T22:47:52.383Z,14.30
2018-08-20T22:50:20.933Z,13.38
2018-08-20T22:52:51.379Z,13.62
2018-08-20T22:55:21.046Z,13.20
2018-08-20T22:58:00.824Z,12.87
2018-08-20T23:00:29.378Z,13.00
2018-08-20T23:02:58.126Z,13.43
2018-08-20T23:05:30.693Z,13.13
2018-08-20T23:08:04.689Z,14.20
2018-08-20T23:10:33.925Z,13.03
2018-08-20T23:13:03.206Z,14.15
2018-08-20T23:15:31.749Z,13.63
2018-08-20T23:18:00.270Z,13.47
2018-08-20T23:20:31.310Z,13.20
2018-08-20T23:23:00.864Z,12.80
2018-08-20T23:25:29.757Z,12.97
2018-08-20T23:27:58.363Z,12.10
2018-08-20T23:30:26.889Z,12.73
2018-08-20T23:32:55.877Z,11.85
2018-08-20T23:35:24.398Z,12.40
2018-08-20T23:37:52.882Z,13.03
2018-08-20T23:40:21.434Z,12.58
2018-08-20T23:42:50.048Z,13.70
2018-08-20T23:45:18.539Z,13.17
2018-08-20T23:47:47.556Z,13.43
2018-08-20T23:50:17.505Z,12.35
2018-08-20T23:52:46.036Z,12.37
